Oxdrift, Canada
Current Conditions -  °F | °C
As of 10:00 AM on Thursday 18 Dec 2014 (Local Time) from CYHD Reporting Station
Clear Clear  
Wind Chill: -9°   Ceiling: Unl
Heat Index:   Visibility: 9mi
Dew Point:   Wind: 9mph
Humidity: 78%   Direction: 190°S
Pressure: 30.29"   Gusts: NA
Location:  49.82°N, 92.98°W
Report Text: CYHD 181600Z AUTO 19008KT 9SM CLR M15/M18 A3029 RMK SLP301
Loading
Personal Weather Stations






























Interactive Weather Map New forecast layout! Learn more

10-Day Weather Forecast

Advertisements
Track Severe Weather on mobile